sensor_id;sensor_type;location;lat;lon;timestamp;pressure;altitude;pressure_sealevel;temperature;humidity
3250;BME280;1637;42.020;23.992;2023-04-19T00:02:08;92295.56;;;9.08;100.00
3250;BME280;1637;42.020;23.992;2023-04-19T00:04:37;92306.00;;;8.68;100.00
3250;BME280;1637;42.020;23.992;2023-04-19T00:07:03;92306.97;;;8.81;100.00
3250;BME280;1637;42.020;23.992;2023-04-19T00:09:30;92305.91;;;8.75;100.00
3250;BME280;1637;42.020;23.992;2023-04-19T00:11:57;92305.63;;;8.70;100.00
3250;BME280;1637;42.020;23.992;2023-04-19T00:14:25;92300.03;;;8.57;100.00
3250;BME280;1637;42.020;23.992;2023-04-19T00:16:52;92298.25;;;8.47;100.00
3250;BME280;1637;42.020;23.992;2023-04-19T00:19:19;92280.16;;;8.27;100.00
3250;BME280;1637;42.020;23.992;2023-04-19T00:21:48;92282.47;;;8.25;100.00
3250;BME280;1637;42.020;23.992;2023-04-19T00:24:15;92290.97;;;8.51;100.00
3250;BME280;1637;42.020;23.992;2023-04-19T00:26:41;92295.84;;;8.56;100.00
3250;BME280;1637;42.020;23.992;2023-04-19T00:29:08;92290.06;;;8.61;100.00
3250;BME280;1637;42.020;23.992;2023-04-19T00:31:35;92261.75;;;8.37;100.00
3250;BME280;1637;42.020;23.992;2023-04-19T00:34:04;92297.50;;;8.46;100.00
3250;BME280;1637;42.020;23.992;2023-04-19T00:36:30;92216.50;;;7.92;100.00
3250;BME280;1637;42.020;23.992;2023-04-19T00:38:59;92294.50;;;8.41;100.00
3250;BME280;1637;42.020;23.992;2023-04-19T00:41:25;92293.75;;;8.40;100.00
3250;BME280;1637;42.020;23.992;2023-04-19T00:43:52;92289.25;;;8.34;100.00
3250;BME280;1637;42.020;23.992;2023-04-19T00:46:19;92287.72;;;8.33;100.00
3250;BME280;1637;42.020;23.992;2023-04-19T00:48:46;92288.50;;;8.30;100.00
3250;BME280;1637;42.020;23.992;2023-04-19T00:51:14;92289.59;;;8.36;100.00
3250;BME280;1637;42.020;23.992;2023-04-19T00:53:42;92287.31;;;8.34;100.00
3250;BME280;1637;42.020;23.992;2023-04-19T00:56:10;92282.41;;;8.29;100.00
3250;BME280;1637;42.020;23.992;2023-04-19T00:58:39;92274.19;;;8.13;100.00
3250;BME280;1637;42.020;23.992;2023-04-19T01:01:06;92278.72;;;8.16;100.00
3250;BME280;1637;42.020;23.992;2023-04-19T01:03:32;92283.97;;;8.26;100.00
3250;BME280;1637;42.020;23.992;2023-04-19T01:06:00;92280.19;;;8.24;100.00
3250;BME280;1637;42.020;23.992;2023-04-19T01:08:27;92274.81;;;8.27;100.00
3250;BME280;1637;42.020;23.992;2023-04-19T01:10:55;92278.25;;;8.28;100.00
3250;BME280;1637;42.020;23.992;2023-04-19T01:13:23;92277.13;;;8.25;100.00
3250;BME280;1637;42.020;23.992;2023-04-19T01:15:53;92274.09;;;8.23;100.00
3250;BME280;1637;42.020;23.992;2023-04-19T01:18:21;92272.50;;;8.30;100.00
3250;BME280;1637;42.020;23.992;2023-04-19T01:20:48;92273.63;;;8.32;100.00
3250;BME280;1637;42.020;23.992;2023-04-19T01:23:16;92270.38;;;8.14;100.00
3250;BME280;1637;42.020;23.992;2023-04-19T01:25:43;92271.09;;;8.18;100.00
3250;BME280;1637;42.020;23.992;2023-04-19T01:28:10;92267.03;;;8.06;100.00
3250;BME280;1637;42.020;23.992;2023-04-19T01:30:37;92262.47;;;8.07;100.00
3250;BME280;1637;42.020;23.992;2023-04-19T01:33:04;92266.75;;;7.97;100.00
3250;BME280;1637;42.020;23.992;2023-04-19T01:35:30;92264.72;;;8.08;100.00
3250;BME280;1637;42.020;23.992;2023-04-19T01:37:57;92259.47;;;8.01;100.00
3250;BME280;1637;42.020;23.992;2023-04-19T01:40:27;92260.16;;;8.09;100.00
3250;BME280;1637;42.020;23.992;2023-04-19T01:42:53;92261.19;;;8.18;100.00
3250;BME280;1637;42.020;23.992;2023-04-19T01:45:20;92264.34;;;8.10;100.00
3250;BME280;1637;42.020;23.992;2023-04-19T01:47:47;92258.88;;;8.20;100.00
3250;BME280;1637;42.020;23.992;2023-04-19T01:50:14;92253.19;;;8.18;100.00
3250;BME280;1637;42.020;23.992;2023-04-19T01:52:40;92261.63;;;8.13;100.00
3250;BME280;1637;42.020;23.992;2023-04-19T01:55:08;92259.03;;;8.06;100.00
3250;BME280;1637;42.020;23.992;2023-04-19T01:57:36;92251.41;;;8.08;100.00
3250;BME280;1637;42.020;23.992;2023-04-19T02:00:03;92252.63;;;8.00;100.00
3250;BME280;1637;42.020;23.992;2023-04-19T02:02:30;92248.59;;;8.19;100.00
3250;BME280;1637;42.020;23.992;2023-04-19T02:04:57;92244.41;;;8.18;100.00
3250;BME280;1637;42.020;23.992;2023-04-19T02:07:24;92244.78;;;8.20;100.00
3250;BME280;1637;42.020;23.992;2023-04-19T02:09:51;92246.25;;;8.24;100.00
3250;BME280;1637;42.020;23.992;2023-04-19T02:12:17;92248.22;;;8.20;100.00
3250;BME280;1637;42.020;23.992;2023-04-19T02:14:46;92247.59;;;8.09;100.00
3250;BME280;1637;42.020;23.992;2023-04-19T02:17:12;92246.91;;;7.98;100.00
3250;BME280;1637;42.020;23.992;2023-04-19T02:19:39;92249.56;;;8.02;100.00
3250;BME280;1637;42.020;23.992;2023-04-19T02:22:06;92254.81;;;8.09;100.00
3250;BME280;1637;42.020;23.992;2023-04-19T02:24:33;92250.94;;;8.13;100.00
3250;BME280;1637;42.020;23.992;2023-04-19T02:27:00;92249.34;;;8.19;100.00
3250;BME280;1637;42.020;23.992;2023-04-19T02:29:26;92288.19;;;8.24;100.00
3250;BME280;1637;42.020;23.992;2023-04-19T02:31:55;92240.56;;;8.22;100.00
3250;BME280;1637;42.020;23.992;2023-04-19T02:34:21;92248.13;;;8.27;100.00
3250;BME280;1637;42.020;23.992;2023-04-19T02:36:48;92246.47;;;8.41;100.00
3250;BME280;1637;42.020;23.992;2023-04-19T02:39:15;92252.16;;;8.43;100.00
3250;BME280;1637;42.020;23.992;2023-04-19T02:41:42;92249.66;;;8.28;100.00
3250;BME280;1637;42.020;23.992;2023-04-19T02:44:09;92241.31;;;8.23;100.00
3250;BME280;1637;42.020;23.992;2023-04-19T02:46:36;92244.47;;;8.14;100.00
3250;BME280;1637;42.020;23.992;2023-04-19T02:49:05;92237.53;;;8.20;100.00
3250;BME280;1637;42.020;23.992;2023-04-19T02:51:32;92240.72;;;8.08;100.00
3250;BME280;1637;42.020;23.992;2023-04-19T02:53:59;92241.09;;;8.10;100.00
3250;BME280;1637;42.020;23.992;2023-04-19T02:56:25;92239.06;;;8.21;100.00
3250;BME280;1637;42.020;23.992;2023-04-19T02:58:52;92239.41;;;8.23;100.00
3250;BME280;1637;42.020;23.992;2023-04-19T03:01:21;92235.22;;;8.22;100.00
3250;BME280;1637;42.020;23.992;2023-04-19T03:03:48;92240.38;;;8.40;100.00
3250;BME280;1637;42.020;23.992;2023-04-19T03:06:16;92235.00;;;8.44;100.00
3250;BME280;1637;42.020;23.992;2023-04-19T03:08:43;92244.97;;;8.40;100.00
3250;BME280;1637;42.020;23.992;2023-04-19T03:11:10;92209.03;;;8.14;100.00
3250;BME280;1637;42.020;23.992;2023-04-19T03:13:37;92229.47;;;8.27;100.00
3250;BME280;1637;42.020;23.992;2023-04-19T03:16:05;92229.38;;;8.35;100.00
3250;BME280;1637;42.020;23.992;2023-04-19T03:18:32;92232.41;;;8.37;100.00
3250;BME280;1637;42.020;23.992;2023-04-19T03:20:59;92230.34;;;8.14;100.00
3250;BME280;1637;42.020;23.992;2023-04-19T03:23:27;92223.22;;;8.07;100.00
3250;BME280;1637;42.020;23.992;2023-04-19T03:25:54;92237.56;;;8.17;100.00
3250;BME280;1637;42.020;23.992;2023-04-19T03:28:21;92238.25;;;8.24;100.00
3250;BME280;1637;42.020;23.992;2023-04-19T03:30:48;92241.34;;;8.19;100.00
3250;BME280;1637;42.020;23.992;2023-04-19T03:33:15;92234.06;;;8.23;100.00
3250;BME280;1637;42.020;23.992;2023-04-19T03:35:42;92234.28;;;8.06;100.00
3250;BME280;1637;42.020;23.992;2023-04-19T03:38:10;92233.94;;;8.00;100.00
3250;BME280;1637;42.020;23.992;2023-04-19T03:40:38;92239.50;;;8.13;100.00
3250;BME280;1637;42.020;23.992;2023-04-19T03:43:05;92234.25;;;8.09;100.00
3250;BME280;1637;42.020;23.992;2023-04-19T03:45:31;92236.16;;;8.09;100.00
3250;BME280;1637;42.020;23.992;2023-04-19T03:47:58;92238.06;;;8.08;100.00
3250;BME280;1637;42.020;23.992;2023-04-19T03:50:25;92232.16;;;8.24;100.00
3250;BME280;1637;42.020;23.992;2023-04-19T03:52:52;92244.31;;;8.28;100.00
3250;BME280;1637;42.020;23.992;2023-04-19T03:55:19;92234.75;;;8.31;100.00
3250;BME280;1637;42.020;23.992;2023-04-19T03:57:47;92205.78;;;7.99;100.00
3250;BME280;1637;42.020;23.992;2023-04-19T04:00:14;92232.09;;;8.31;100.00
3250;BME280;1637;42.020;23.992;2023-04-19T04:02:41;92237.53;;;8.20;100.00
3250;BME280;1637;42.020;23.992;2023-04-19T04:05:08;92236.19;;;8.05;100.00
3250;BME280;1637;42.020;23.992;2023-04-19T04:07:35;92238.94;;;7.98;100.00
3250;BME280;1637;42.020;23.992;2023-04-19T04:10:02;92239.75;;;7.91;100.00
3250;BME280;1637;42.020;23.992;2023-04-19T04:12:29;92235.78;;;8.07;100.00
3250;BME280;1637;42.020;23.992;2023-04-19T04:14:57;92242.06;;;8.23;100.00
3250;BME280;1637;42.020;23.992;2023-04-19T04:17:24;92248.09;;;8.31;100.00
3250;BME280;1637;42.020;23.992;2023-04-19T04:19:51;92245.75;;;8.37;100.00
3250;BME280;1637;42.020;23.992;2023-04-19T04:22:18;92254.03;;;8.46;100.00
3250;BME280;1637;42.020;23.992;2023-04-19T04:24:44;92243.44;;;8.39;100.00
3250;BME280;1637;42.020;23.992;2023-04-19T04:27:12;92244.97;;;8.40;100.00
3250;BME280;1637;42.020;23.992;2023-04-19T04:29:39;92250.59;;;8.49;100.00
3250;BME280;1637;42.020;23.992;2023-04-19T04:32:09;92245.69;;;8.44;100.00
3250;BME280;1637;42.020;23.992;2023-04-19T04:34:38;92249.56;;;8.36;100.00
3250;BME280;1637;42.020;23.992;2023-04-19T04:37:07;92242.06;;;8.23;100.00
3250;BME280;1637;42.020;23.992;2023-04-19T04:39:33;92247.41;;;8.23;100.00
3250;BME280;1637;42.020;23.992;2023-04-19T04:42:03;92246.59;;;8.30;100.00
3250;BME280;1637;42.020;23.992;2023-04-19T04:44:32;92252.97;;;8.40;100.00
3250;BME280;1637;42.020;23.992;2023-04-19T04:46:59;92247.44;;;8.54;100.00
3250;BME280;1637;42.020;23.992;2023-04-19T04:49:27;92246.31;;;8.82;100.00
3250;BME280;1637;42.020;23.992;2023-04-19T04:51:54;92249.91;;;8.99;100.00
3250;BME280;1637;42.020;23.992;2023-04-19T04:54:20;92249.53;;;8.96;100.00
3250;BME280;1637;42.020;23.992;2023-04-19T04:56:47;92246.84;;;9.00;100.00
3250;BME280;1637;42.020;23.992;2023-04-19T04:59:14;92248.88;;;8.92;100.00
3250;BME280;1637;42.020;23.992;2023-04-19T05:01:41;92253.13;;;8.86;100.00
3250;BME280;1637;42.020;23.992;2023-04-19T05:04:08;92245.47;;;8.88;100.00
3250;BME280;1637;42.020;23.992;2023-04-19T05:06:36;92252.38;;;9.13;100.00
3250;BME280;1637;42.020;23.992;2023-04-19T05:09:05;92253.81;;;9.17;100.00
3250;BME280;1637;42.020;23.992;2023-04-19T05:11:32;92256.81;;;8.96;100.00
3250;BME280;1637;42.020;23.992;2023-04-19T05:13:59;92253.69;;;9.01;100.00
3250;BME280;1637;42.020;23.992;2023-04-19T05:16:25;92248.09;;;8.92;100.00
3250;BME280;1637;42.020;23.992;2023-04-19T05:18:52;92260.19;;;9.00;100.00
3250;BME280;1637;42.020;23.992;2023-04-19T05:21:20;92249.00;;;8.82;100.00
3250;BME280;1637;42.020;23.992;2023-04-19T05:23:48;92255.81;;;8.86;100.00
3250;BME280;1637;42.020;23.992;2023-04-19T05:26:17;92253.28;;;9.03;100.00
3250;BME280;1637;42.020;23.992;2023-04-19T05:28:44;92249.06;;;9.05;100.00
3250;BME280;1637;42.020;23.992;2023-04-19T05:31:11;92258.38;;;9.20;100.00
3250;BME280;1637;42.020;23.992;2023-04-19T05:33:38;92258.88;;;9.12;100.00
3250;BME280;1637;42.020;23.992;2023-04-19T05:36:05;92260.22;;;9.23;100.00
3250;BME280;1637;42.020;23.992;2023-04-19T05:38:32;92260.91;;;9.31;100.00
3250;BME280;1637;42.020;23.992;2023-04-19T05:41:01;92262.97;;;9.43;100.00
3250;BME280;1637;42.020;23.992;2023-04-19T05:43:27;92266.47;;;9.40;100.00
3250;BME280;1637;42.020;23.992;2023-04-19T05:45:54;92263.81;;;9.63;100.00
3250;BME280;1637;42.020;23.992;2023-04-19T05:48:21;92258.47;;;9.63;100.00
3250;BME280;1637;42.020;23.992;2023-04-19T05:50:48;92261.31;;;9.76;100.00
3250;BME280;1637;42.020;23.992;2023-04-19T05:53:16;92270.06;;;10.00;100.00
3250;BME280;1637;42.020;23.992;2023-04-19T05:55:43;92268.19;;;10.20;100.00
3250;BME280;1637;42.020;23.992;2023-04-19T05:58:14;92267.03;;;10.41;100.00
3250;BME280;1637;42.020;23.992;2023-04-19T06:00:41;92263.72;;;10.73;100.00
3250;BME280;1637;42.020;23.992;2023-04-19T06:03:08;92267.94;;;10.74;100.00
3250;BME280;1637;42.020;23.992;2023-04-19T06:05:35;92264.63;;;10.47;100.00
3250;BME280;1637;42.020;23.992;2023-04-19T06:08:02;92270.00;;;10.47;100.00
3250;BME280;1637;42.020;23.992;2023-04-19T06:10:29;92269.03;;;10.57;100.00
3250;BME280;1637;42.020;23.992;2023-04-19T06:12:56;92268.06;;;10.67;100.00
3250;BME280;1637;42.020;23.992;2023-04-19T06:15:24;92269.88;;;10.54;100.00
3250;BME280;1637;42.020;23.992;2023-04-19T06:17:51;92263.06;;;10.49;100.00
3250;BME280;1637;42.020;23.992;2023-04-19T06:20:18;92271.78;;;10.53;100.00
3250;BME280;1637;42.020;23.992;2023-04-19T06:22:45;92266.94;;;10.84;100.00
3250;BME280;1637;42.020;23.992;2023-04-19T06:25:12;92264.84;;;11.28;100.00
3250;BME280;1637;42.020;23.992;2023-04-19T06:27:39;92267.38;;;11.51;100.00
3250;BME280;1637;42.020;23.992;2023-04-19T06:30:06;92260.69;;;11.59;100.00
3250;BME280;1637;42.020;23.992;2023-04-19T06:32:35;92272.50;;;11.94;99.31
3250;BME280;1637;42.020;23.992;2023-04-19T06:35:02;92271.00;;;11.93;100.00
3250;BME280;1637;42.020;23.992;2023-04-19T06:37:29;92270.66;;;11.91;100.00
3250;BME280;1637;42.020;23.992;2023-04-19T06:39:55;92272.16;;;12.37;97.14
3250;BME280;1637;42.020;23.992;2023-04-19T06:42:22;92278.56;;;12.98;94.39
3250;BME280;1637;42.020;23.992;2023-04-19T06:44:50;92278.72;;;13.58;87.24
3250;BME280;1637;42.020;23.992;2023-04-19T06:47:17;92280.16;;;14.09;88.45
3250;BME280;1637;42.020;23.992;2023-04-19T06:49:45;92281.97;;;14.82;80.30
3250;BME280;1637;42.020;23.992;2023-04-19T06:52:12;92274.63;;;15.35;78.69
3250;BME280;1637;42.020;23.992;2023-04-19T06:54:39;92304.63;;;16.26;73.16
3250;BME280;1637;42.020;23.992;2023-04-19T06:57:06;92304.22;;;17.19;66.89
3250;BME280;1637;42.020;23.992;2023-04-19T06:59:33;92293.28;;;16.68;71.44
3250;BME280;1637;42.020;23.992;2023-04-19T07:02:04;92287.84;;;15.73;74.81
3250;BME280;1637;42.020;23.992;2023-04-19T07:04:31;92287.84;;;14.89;77.94
3250;BME280;1637;42.020;23.992;2023-04-19T07:06:59;92280.03;;;13.66;86.61
3250;BME280;1637;42.020;23.992;2023-04-19T07:09:26;92283.66;;;13.85;87.41
3250;BME280;1637;42.020;23.992;2023-04-19T07:11:52;92284.53;;;13.56;85.31
3250;BME280;1637;42.020;23.992;2023-04-19T07:14:19;92289.03;;;13.08;87.37
3250;BME280;1637;42.020;23.992;2023-04-19T07:16:48;92290.72;;;15.17;85.15
3250;BME280;1637;42.020;23.992;2023-04-19T07:19:14;92295.06;;;16.89;73.41
3250;BME280;1637;42.020;23.992;2023-04-19T07:21:43;92291.63;;;15.75;80.93
3250;BME280;1637;42.020;23.992;2023-04-19T07:24:11;92295.06;;;16.89;74.50
3250;BME280;1637;42.020;23.992;2023-04-19T07:26:38;92286.28;;;16.03;73.63
3250;BME280;1637;42.020;23.992;2023-04-19T07:29:05;92287.25;;;15.38;73.90
3250;BME280;1637;42.020;23.992;2023-04-19T07:31:32;92281.91;;;14.94;71.08
3250;BME280;1637;42.020;23.992;2023-04-19T07:33:58;92279.13;;;14.85;79.37
3250;BME280;1637;42.020;23.992;2023-04-19T07:36:25;92282.66;;;14.73;78.85
3250;BME280;1637;42.020;23.992;2023-04-19T07:38:52;92284.41;;;16.40;68.56
3250;BME280;1637;42.020;23.992;2023-04-19T07:41:20;92292.81;;;16.60;64.90
3250;BME280;1637;42.020;23.992;2023-04-19T07:43:47;92300.56;;;16.22;64.20
3250;BME280;1637;42.020;23.992;2023-04-19T07:46:14;92299.56;;;16.56;63.31
3250;BME280;1637;42.020;23.992;2023-04-19T07:48:41;92303.00;;;16.38;65.90
3250;BME280;1637;42.020;23.992;2023-04-19T07:51:09;92299.22;;;16.17;66.94
3250;BME280;1637;42.020;23.992;2023-04-19T07:53:37;92318.06;;;15.90;64.83
3250;BME280;1637;42.020;23.992;2023-04-19T07:56:05;92300.59;;;16.31;63.70
3250;BME280;1637;42.020;23.992;2023-04-19T07:58:34;92310.38;;;16.37;62.52
3250;BME280;1637;42.020;23.992;2023-04-19T08:01:01;92300.75;;;16.55;64.93
3250;BME280;1637;42.020;23.992;2023-04-19T08:03:28;92297.63;;;16.56;67.62
3250;BME280;1637;42.020;23.992;2023-04-19T08:05:55;92308.84;;;17.28;60.92
3250;BME280;1637;42.020;23.992;2023-04-19T08:08:22;92296.81;;;16.10;64.60
3250;BME280;1637;42.020;23.992;2023-04-19T08:10:50;92299.91;;;16.76;63.29
3250;BME280;1637;42.020;23.992;2023-04-19T08:13:19;92295.91;;;17.32;60.40
3250;BME280;1637;42.020;23.992;2023-04-19T08:15:47;92273.50;;;15.23;66.37
3250;BME280;1637;42.020;23.992;2023-04-19T08:18:14;92286.59;;;16.14;64.97
3250;BME280;1637;42.020;23.992;2023-04-19T08:20:41;92279.88;;;16.37;66.27
3250;BME280;1637;42.020;23.992;2023-04-19T08:23:08;92257.94;;;15.27;67.62
3250;BME280;1637;42.020;23.992;2023-04-19T08:25:35;92284.72;;;14.91;68.79
3250;BME280;1637;42.020;23.992;2023-04-19T08:28:02;92283.66;;;13.08;76.80
3250;BME280;1637;42.020;23.992;2023-04-19T08:30:29;92277.44;;;15.00;71.42
3250;BME280;1637;42.020;23.992;2023-04-19T08:32:58;92276.69;;;14.56;68.21
3250;BME280;1637;42.020;23.992;2023-04-19T08:35:25;92272.53;;;13.95;73.71
3250;BME280;1637;42.020;23.992;2023-04-19T08:37:52;92266.13;;;14.15;74.78
3250;BME280;1637;42.020;23.992;2023-04-19T08:40:19;92269.34;;;14.57;72.49
3250;BME280;1637;42.020;23.992;2023-04-19T08:42:46;92267.31;;;14.14;75.08
3250;BME280;1637;42.020;23.992;2023-04-19T08:45:15;92266.44;;;14.29;73.92
3250;BME280;1637;42.020;23.992;2023-04-19T08:47:42;92277.16;;;15.29;67.28
3250;BME280;1637;42.020;23.992;2023-04-19T08:50:11;92265.09;;;15.52;67.75
3250;BME280;1637;42.020;23.992;2023-04-19T08:52:38;92253.31;;;14.19;71.11
3250;BME280;1637;42.020;23.992;2023-04-19T08:55:07;92253.44;;;14.37;70.66
3250;BME280;1637;42.020;23.992;2023-04-19T08:57:34;92254.75;;;14.45;70.07
3250;BME280;1637;42.020;23.992;2023-04-19T09:00:02;92251.47;;;13.81;74.58
3250;BME280;1637;42.020;23.992;2023-04-19T09:02:44;92236.44;;;13.71;74.11
3250;BME280;1637;42.020;23.992;2023-04-19T09:05:14;92248.91;;;13.65;76.28
3250;BME280;1637;42.020;23.992;2023-04-19T09:07:42;92241.53;;;14.25;72.85
3250;BME280;1637;42.020;23.992;2023-04-19T09:10:11;92231.59;;;13.66;74.03
3250;BME280;1637;42.020;23.992;2023-04-19T09:12:39;92239.13;;;13.71;74.11
3250;BME280;1637;42.020;23.992;2023-04-19T09:15:07;92238.72;;;13.47;76.01
3250;BME280;1637;42.020;23.992;2023-04-19T09:17:34;92234.47;;;14.53;71.27
3250;BME280;1637;42.020;23.992;2023-04-19T09:20:02;92231.41;;;14.29;72.82
3250;BME280;1637;42.020;23.992;2023-04-19T09:22:32;92248.97;;;14.56;72.21
3250;BME280;1637;42.020;23.992;2023-04-19T09:24:59;92241.84;;;14.84;68.14
3250;BME280;1637;42.020;23.992;2023-04-19T09:27:28;92256.38;;;14.64;67.46
3250;BME280;1637;42.020;23.992;2023-04-19T09:29:56;92240.25;;;14.95;69.45
3250;BME280;1637;42.020;23.992;2023-04-19T09:32:23;92235.19;;;15.68;63.15
3250;BME280;1637;42.020;23.992;2023-04-19T09:34:55;92269.53;;;16.99;59.91
3250;BME280;1637;42.020;23.992;2023-04-19T09:37:22;92252.59;;;17.32;58.82
3250;BME280;1637;42.020;23.992;2023-04-19T09:39:51;92254.59;;;18.45;54.29
3250;BME280;1637;42.020;23.992;2023-04-19T09:42:18;92249.44;;;17.75;57.32
3250;BME280;1637;42.020;23.992;2023-04-19T09:44:55;92240.25;;;16.79;58.16
3250;BME280;1637;42.020;23.992;2023-04-19T09:47:24;92232.59;;;16.60;58.31
3250;BME280;1637;42.020;23.992;2023-04-19T09:50:05;92236.72;;;15.78;61.71
3250;BME280;1637;42.020;23.992;2023-04-19T09:52:33;92235.91;;;15.60;61.75
3250;BME280;1637;42.020;23.992;2023-04-19T09:55:02;92227.25;;;15.74;63.40
3250;BME280;1637;42.020;23.992;2023-04-19T09:57:30;92230.28;;;15.45;63.48
3250;BME280;1637;42.020;23.992;2023-04-19T09:59:58;92222.06;;;15.18;64.92
3250;BME280;1637;42.020;23.992;2023-04-19T10:02:29;92233.31;;;15.16;64.42
3250;BME280;1637;42.020;23.992;2023-04-19T10:04:57;92236.94;;;14.91;62.79
3250;BME280;1637;42.020;23.992;2023-04-19T10:07:24;92233.75;;;14.84;60.23
3250;BME280;1637;42.020;23.992;2023-04-19T10:09:54;92234.06;;;14.86;61.87
3250;BME280;1637;42.020;23.992;2023-04-19T10:12:24;92235.22;;;14.75;60.74
3250;BME280;1637;42.020;23.992;2023-04-19T10:14:52;92237.75;;;14.79;62.48
3250;BME280;1637;42.020;23.992;2023-04-19T10:17:21;92240.50;;;14.88;63.60
3250;BME280;1637;42.020;23.992;2023-04-19T10:19:51;92255.19;;;14.87;65.18
3250;BME280;1637;42.020;23.992;2023-04-19T10:22:21;92250.69;;;14.62;67.97
3250;BME280;1637;42.020;23.992;2023-04-19T10:25:07;92248.09;;;14.02;77.29
3250;BME280;1637;42.020;23.992;2023-04-19T10:27:36;92247.47;;;13.86;78.32
3250;BME280;1637;42.020;23.992;2023-04-19T10:30:04;92233.88;;;13.42;79.51
3250;BME280;1637;42.020;23.992;2023-04-19T10:32:37;92257.13;;;13.23;79.54
3250;BME280;1637;42.020;23.992;2023-04-19T10:35:07;92256.25;;;12.72;84.78
3250;BME280;1637;42.020;23.992;2023-04-19T10:37:38;92258.22;;;12.84;85.51
3250;BME280;1637;42.020;23.992;2023-04-19T10:40:08;92258.41;;;12.64;83.51
3250;BME280;1637;42.020;23.992;2023-04-19T10:45:38;92258.47;;;13.02;81.56
3250;BME280;1637;42.020;23.992;2023-04-19T10:48:05;92261.59;;;12.59;83.14
3250;BME280;1637;42.020;23.992;2023-04-19T10:50:59;92260.34;;;12.35;84.19
3250;BME280;1637;42.020;23.992;2023-04-19T10:53:45;92256.16;;;12.34;87.34
3250;BME280;1637;42.020;23.992;2023-04-19T10:56:13;92260.19;;;12.55;82.21
3250;BME280;1637;42.020;23.992;2023-04-19T10:59:14;92268.97;;;12.84;82.41
3250;BME280;1637;42.020;23.992;2023-04-19T11:01:50;92268.97;;;12.84;86.94
3250;BME280;1637;42.020;23.992;2023-04-19T11:04:19;92272.00;;;12.86;85.92
3250;BME280;1637;42.020;23.992;2023-04-19T11:07:00;92265.44;;;12.17;91.12
3250;BME280;1637;42.020;23.992;2023-04-19T11:09:29;92257.66;;;11.57;100.00
3250;BME280;1637;42.020;23.992;2023-04-19T11:11:58;92250.88;;;10.84;100.00
3250;BME280;1637;42.020;23.992;2023-04-19T11:14:29;92246.59;;;10.51;100.00
3250;BME280;1637;42.020;23.992;2023-04-19T11:16:59;92248.38;;;10.57;100.00
3250;BME280;1637;42.020;23.992;2023-04-19T11:19:26;92254.88;;;11.12;100.00
3250;BME280;1637;42.020;23.992;2023-04-19T11:21:57;92246.53;;;11.43;100.00
3250;BME280;1637;42.020;23.992;2023-04-19T11:24:24;92259.66;;;11.69;100.00
3250;BME280;1637;42.020;23.992;2023-04-19T11:26:50;92260.44;;;12.31;97.79
3250;BME280;1637;42.020;23.992;2023-04-19T11:29:18;92258.13;;;12.46;100.00
3250;BME280;1637;42.020;23.992;2023-04-19T11:31:47;92262.53;;;12.53;100.00
3250;BME280;1637;42.020;23.992;2023-04-19T11:34:15;92235.28;;;12.25;100.00
3250;BME280;1637;42.020;23.992;2023-04-19T11:36:47;92258.97;;;12.85;100.00
3250;BME280;1637;42.020;23.992;2023-04-19T11:39:14;92265.03;;;13.01;97.21
3250;BME280;1637;42.020;23.992;2023-04-19T11:41:41;92259.84;;;12.94;93.28
3250;BME280;1637;42.020;23.992;2023-04-19T11:44:16;92261.09;;;13.19;86.83
3250;BME280;1637;42.020;23.992;2023-04-19T11:46:59;92256.69;;;13.37;85.17
3250;BME280;1637;42.020;23.992;2023-04-19T11:49:31;92248.66;;;13.85;85.79
3250;BME280;1637;42.020;23.992;2023-04-19T11:51:59;92245.94;;;13.25;85.26
3250;BME280;1637;42.020;23.992;2023-04-19T11:54:26;92258.56;;;13.12;81.75
3250;BME280;1637;42.020;23.992;2023-04-19T11:56:58;92250.84;;;13.64;80.88
3250;BME280;1637;42.020;23.992;2023-04-19T11:59:25;92247.84;;;13.62;77.31
3250;BME280;1637;42.020;23.992;2023-04-19T12:01:51;92247.97;;;14.06;74.71
3250;BME280;1637;42.020;23.992;2023-04-19T12:04:19;92246.63;;;13.89;78.45
3250;BME280;1637;42.020;23.992;2023-04-19T12:06:56;92246.44;;;13.58;76.41
3250;BME280;1637;42.020;23.992;2023-04-19T12:09:24;92236.88;;;13.44;82.47
3250;BME280;1637;42.020;23.992;2023-04-19T12:11:51;92232.53;;;13.72;79.88
3250;BME280;1637;42.020;23.992;2023-04-19T12:14:19;92230.97;;;13.49;78.00
3250;BME280;1637;42.020;23.992;2023-04-19T12:17:11;92226.28;;;13.75;77.97
3250;BME280;1637;42.020;23.992;2023-04-19T12:19:42;92233.09;;;13.54;79.14
3250;BME280;1637;42.020;23.992;2023-04-19T12:22:13;92222.03;;;13.39;80.49
3250;BME280;1637;42.020;23.992;2023-04-19T12:24:40;92228.50;;;13.42;79.58
3250;BME280;1637;42.020;23.992;2023-04-19T12:27:08;92224.41;;;13.25;81.01
3250;BME280;1637;42.020;23.992;2023-04-19T12:29:36;92219.78;;;13.38;79.78
3250;BME280;1637;42.020;23.992;2023-04-19T12:32:03;92228.81;;;13.44;79.17
3250;BME280;1637;42.020;23.992;2023-04-19T12:34:31;92222.25;;;13.07;79.60
3250;BME280;1637;42.020;23.992;2023-04-19T12:36:57;92225.56;;;12.98;82.27
3250;BME280;1637;42.020;23.992;2023-04-19T12:39:26;92231.47;;;13.06;80.78
3250;BME280;1637;42.020;23.992;2023-04-19T12:41:53;92223.84;;;13.04;83.66
3250;BME280;1637;42.020;23.992;2023-04-19T12:44:20;92215.91;;;13.26;81.21
3250;BME280;1637;42.020;23.992;2023-04-19T12:46:47;92217.63;;;13.33;81.09
3250;BME280;1637;42.020;23.992;2023-04-19T12:49:17;92215.44;;;13.53;83.03
3250;BME280;1637;42.020;23.992;2023-04-19T12:51:44;92208.00;;;13.57;84.33
3250;BME280;1637;42.020;23.992;2023-04-19T12:54:12;92210.44;;;13.90;84.43
3250;BME280;1637;42.020;23.992;2023-04-19T12:56:40;92220.56;;;13.86;81.89
3250;BME280;1637;42.020;23.992;2023-04-19T12:59:07;92210.50;;;13.99;82.08
3250;BME280;1637;42.020;23.992;2023-04-19T13:01:34;92218.69;;;14.30;81.95
3250;BME280;1637;42.020;23.992;2023-04-19T13:04:01;92214.16;;;13.70;79.65
3250;BME280;1637;42.020;23.992;2023-04-19T13:06:28;92202.31;;;13.55;85.04
3250;BME280;1637;42.020;23.992;2023-04-19T13:08:54;92211.47;;;13.58;89.01
3250;BME280;1637;42.020;23.992;2023-04-19T13:11:21;92202.97;;;13.59;91.90
3250;BME280;1637;42.020;23.992;2023-04-19T13:13:50;92182.09;;;12.74;91.38
3250;BME280;1637;42.020;23.992;2023-04-19T13:16:18;92207.91;;;12.85;91.58
3250;BME280;1637;42.020;23.992;2023-04-19T13:18:45;92202.53;;;13.10;91.76